createdAt,value
2023-01-30T00:00:36.056Z,-3.74
2023-01-30T00:03:05.158Z,-3.85
2023-01-30T00:05:31.684Z,-4.12
2023-01-30T00:07:58.307Z,-3.80
2023-01-30T00:10:26.079Z,-3.90
2023-01-30T00:12:52.708Z,-3.92
2023-01-30T00:15:19.175Z,-4.36
2023-01-30T00:17:45.620Z,-4.35
2023-01-30T00:20:13.635Z,-3.76
2023-01-30T00:22:49.249Z,-3.78
2023-01-30T00:25:19.156Z,-3.69
2023-01-30T00:27:45.653Z,-3.62
2023-01-30T00:30:12.466Z,-3.78
2023-01-30T00:32:39.097Z,-3.71
2023-01-30T00:35:05.731Z,-4.09
2023-01-30T00:37:32.611Z,-3.77
2023-01-30T00:39:59.050Z,-3.84
2023-01-30T00:42:25.539Z,-3.77
2023-01-30T00:44:51.993Z,-3.83
2023-01-30T00:47:18.956Z,-3.64
2023-01-30T00:49:45.564Z,-3.93
2023-01-30T00:52:12.094Z,-3.74
2023-01-30T00:54:38.639Z,-3.54
2023-01-30T00:57:05.148Z,-3.53
2023-01-30T00:59:31.563Z,-3.83
2023-01-30T01:01:58.138Z,-3.72
2023-01-30T01:04:24.734Z,-3.79
2023-01-30T01:06:52.169Z,-4.08
2023-01-30T01:09:18.598Z,-4.00
2023-01-30T01:11:45.069Z,-4.20
2023-01-30T01:14:14.076Z,-4.01
2023-01-30T01:16:40.936Z,-3.79
2023-01-30T01:19:07.433Z,-4.02
2023-01-30T01:21:34.144Z,-4.10
2023-01-30T01:24:00.585Z,-3.98
2023-01-30T01:26:27.053Z,-4.19
2023-01-30T01:28:53.798Z,-4.09
2023-01-30T01:31:20.265Z,-4.37
2023-01-30T01:33:46.725Z,-4.04
2023-01-30T01:36:20.088Z,-4.22
2023-01-30T01:38:56.497Z,-4.12
2023-01-30T01:41:22.993Z,-4.23
2023-01-30T01:43:49.585Z,-4.32
2023-01-30T01:46:16.585Z,-4.12
2023-01-30T01:48:43.039Z,-4.02
2023-01-30T01:51:09.969Z,-3.97
2023-01-30T01:53:36.358Z,-4.37
2023-01-30T01:56:03.040Z,-4.16
2023-01-30T01:58:29.556Z,-3.88
2023-01-30T02:00:56.139Z,-4.13
2023-01-30T02:03:22.774Z,-3.71
2023-01-30T02:05:49.175Z,-4.05
2023-01-30T02:08:15.663Z,-3.79
2023-01-30T02:10:42.049Z,-3.53
2023-01-30T02:13:08.532Z,-3.51
2023-01-30T02:15:35.005Z,-3.83
2023-01-30T02:18:01.409Z,-3.70
2023-01-30T02:20:27.801Z,-3.92
2023-01-30T02:22:54.267Z,-4.45
2023-01-30T02:25:21.284Z,-4.25
2023-01-30T02:27:48.020Z,-4.02
2023-01-30T02:30:14.424Z,-3.99
2023-01-30T02:32:40.911Z,-3.89
2023-01-30T02:35:07.372Z,-3.67
2023-01-30T02:37:33.784Z,-3.89
2023-01-30T02:40:00.214Z,-3.82
2023-01-30T02:42:26.646Z,-4.13
2023-01-30T02:44:53.283Z,-4.03
2023-01-30T02:47:19.776Z,-3.66
2023-01-30T02:49:46.241Z,-3.75
2023-01-30T02:52:12.834Z,-3.56
2023-01-30T02:54:39.382Z,-3.60
2023-01-30T02:57:06.031Z,-3.53
2023-01-30T02:59:32.547Z,-3.78
2023-01-30T03:01:59.143Z,-3.63
2023-01-30T03:04:25.611Z,-3.64
2023-01-30T03:06:52.064Z,-3.93
2023-01-30T03:09:18.681Z,-3.79
2023-01-30T03:11:45.487Z,-3.76
2023-01-30T03:14:11.891Z,-3.41
2023-01-30T03:16:38.643Z,-3.59
2023-01-30T03:19:05.119Z,-3.50
2023-01-30T03:21:31.511Z,-3.55
2023-01-30T03:24:00.101Z,-3.57
2023-01-30T03:26:26.535Z,-3.62
2023-01-30T03:28:52.990Z,-3.48
2023-01-30T03:31:19.501Z,-3.22
2023-01-30T03:33:46.059Z,-3.33
2023-01-30T03:36:12.789Z,-3.51
2023-01-30T03:38:39.207Z,-3.40
2023-01-30T03:41:05.740Z,-3.76
2023-01-30T03:43:32.169Z,-3.59
2023-01-30T03:45:58.715Z,-3.77
2023-01-30T03:48:25.178Z,-3.74
2023-01-30T03:50:51.640Z,-3.65
2023-01-30T03:53:18.504Z,-3.85
2023-01-30T03:55:44.940Z,-3.79
2023-01-30T03:58:11.400Z,-3.85
2023-01-30T04:00:37.802Z,-3.92
2023-01-30T04:03:04.190Z,-3.91
2023-01-30T04:05:30.884Z,-3.97
2023-01-30T04:07:57.476Z,-4.01
2023-01-30T04:10:24.025Z,-4.26
2023-01-30T04:12:50.389Z,-4.09
2023-01-30T04:15:17.188Z,-3.82
2023-01-30T04:17:44.231Z,-4.09
2023-01-30T04:20:10.850Z,-3.92
2023-01-30T04:22:37.277Z,-3.95
2023-01-30T04:25:03.898Z,-3.63
2023-01-30T04:27:30.342Z,-3.94
2023-01-30T04:29:56.727Z,-3.87
2023-01-30T04:32:23.163Z,-3.59
2023-01-30T04:34:49.758Z,-4.07
2023-01-30T04:37:16.232Z,-4.35
2023-01-30T04:39:42.658Z,-3.77
2023-01-30T04:42:09.076Z,-4.16
2023-01-30T04:44:35.473Z,-4.50
2023-01-30T04:47:01.862Z,-4.30
2023-01-30T04:49:28.511Z,-4.34
2023-01-30T04:51:54.892Z,-4.15
2023-01-30T04:54:21.439Z,-3.97
2023-01-30T04:56:47.921Z,-4.35
2023-01-30T04:59:14.396Z,-4.43
2023-01-30T05:01:41.193Z,-4.40
2023-01-30T05:04:07.635Z,-4.27
2023-01-30T05:06:36.157Z,-4.16
2023-01-30T05:09:02.727Z,-3.98
2023-01-30T05:11:29.215Z,-4.01
2023-01-30T05:13:55.873Z,-3.91
2023-01-30T05:16:22.353Z,-4.32
2023-01-30T05:18:48.995Z,-4.13
2023-01-30T05:21:15.384Z,-4.32
2023-01-30T05:23:42.559Z,-4.04
2023-01-30T05:26:09.087Z,-3.83
2023-01-30T05:28:38.732Z,-4.00
2023-01-30T05:31:05.640Z,-3.84
2023-01-30T05:33:34.227Z,-4.03
2023-01-30T05:36:00.760Z,-4.05
2023-01-30T05:38:27.440Z,-3.92
2023-01-30T05:40:54.216Z,-4.01
2023-01-30T05:43:21.054Z,-4.05
2023-01-30T05:45:47.974Z,-3.98
2023-01-30T05:48:14.369Z,-4.12
2023-01-30T05:50:40.943Z,-4.18
2023-01-30T05:53:07.544Z,-4.15
2023-01-30T05:55:36.338Z,-4.10
2023-01-30T05:58:02.776Z,-4.16
2023-01-30T06:00:29.254Z,-3.71
2023-01-30T06:02:56.070Z,-3.55
2023-01-30T06:05:22.637Z,-4.23
2023-01-30T06:07:49.072Z,-3.91
2023-01-30T06:10:15.759Z,-3.98
2023-01-30T06:12:42.170Z,-4.07
2023-01-30T06:15:08.701Z,-3.91
2023-01-30T06:17:35.178Z,-4.19
2023-01-30T06:20:01.669Z,-3.93
2023-01-30T06:22:28.201Z,-3.82
2023-01-30T06:24:54.744Z,-3.53
2023-01-30T06:27:21.254Z,-3.47
2023-01-30T06:29:47.972Z,-3.68
2023-01-30T06:32:14.373Z,-3.72
2023-01-30T06:34:40.895Z,-3.77
2023-01-30T06:37:07.623Z,-3.65
2023-01-30T06:39:34.069Z,-3.93
2023-01-30T06:42:00.494Z,-3.70
2023-01-30T06:44:27.623Z,-3.76
2023-01-30T06:46:54.217Z,-3.44
2023-01-30T06:49:20.728Z,-3.29
2023-01-30T06:51:47.256Z,-3.15
2023-01-30T06:54:13.863Z,-2.81
2023-01-30T06:56:40.319Z,-3.09
2023-01-30T06:59:06.686Z,-3.38
2023-01-30T07:01:33.425Z,-3.45
2023-01-30T07:04:00.002Z,-3.12
2023-01-30T07:06:29.001Z,-3.05
2023-01-30T07:08:56.131Z,-2.97
2023-01-30T07:11:22.759Z,-2.99
2023-01-30T07:13:49.208Z,-3.30
2023-01-30T07:16:15.797Z,-3.49
2023-01-30T07:18:44.907Z,-3.08
2023-01-30T07:21:11.529Z,-3.82
2023-01-30T07:23:39.037Z,-3.77
2023-01-30T07:26:05.607Z,-3.99
2023-01-30T07:28:32.154Z,-3.35
2023-01-30T07:30:58.573Z,-3.35
2023-01-30T07:33:25.422Z,-3.38
2023-01-30T07:35:53.513Z,-3.72
2023-01-30T07:38:20.445Z,-3.33
2023-01-30T07:40:47.184Z,-3.45
2023-01-30T07:43:13.872Z,-3.46
2023-01-30T07:45:40.400Z,-3.65
2023-01-30T07:48:06.835Z,-3.73
2023-01-30T07:50:33.759Z,-3.46
2023-01-30T07:53:00.237Z,-3.04
2023-01-30T07:55:26.624Z,-3.38
2023-01-30T07:57:53.251Z,-3.42
2023-01-30T08:00:20.286Z,-3.31
2023-01-30T08:02:46.991Z,-3.16
2023-01-30T08:05:13.734Z,-3.72
2023-01-30T08:07:40.350Z,-3.88
2023-01-30T08:10:06.730Z,-3.65
2023-01-30T08:12:33.447Z,-3.45
2023-01-30T08:15:00.215Z,-3.52
2023-01-30T08:17:26.857Z,-3.15
2023-01-30T08:19:54.011Z,-3.23
2023-01-30T08:22:20.749Z,-3.39
2023-01-30T08:24:47.175Z,-3.54
2023-01-30T08:27:14.017Z,-3.40
2023-01-30T08:29:40.498Z,-3.31
2023-01-30T08:32:07.137Z,-3.49
2023-01-30T08:34:34.144Z,-2.99
2023-01-30T08:37:00.652Z,-2.57
2023-01-30T08:39:27.050Z,-2.79
2023-01-30T08:41:53.478Z,-2.79
2023-01-30T08:44:20.830Z,-2.59
2023-01-30T08:46:47.247Z,-3.15
2023-01-30T08:49:13.709Z,-2.71
2023-01-30T08:51:40.200Z,-2.72
2023-01-30T08:54:06.729Z,-2.50
2023-01-30T08:56:33.236Z,-2.79
2023-01-30T08:58:59.990Z,-2.75
2023-01-30T09:01:26.560Z,-2.50
2023-01-30T09:03:53.110Z,-2.62
2023-01-30T09:06:19.728Z,-2.60
2023-01-30T09:08:46.621Z,-2.68
2023-01-30T09:11:13.105Z,-2.73
2023-01-30T09:13:39.552Z,-2.88
2023-01-30T09:16:06.430Z,-3.63
2023-01-30T09:18:32.928Z,-3.69
2023-01-30T09:20:59.371Z,-3.36
2023-01-30T09:23:25.815Z,-3.62
2023-01-30T09:25:52.355Z,-3.50
2023-01-30T09:28:18.936Z,-3.49
2023-01-30T09:30:45.453Z,-3.77
2023-01-30T09:33:11.855Z,-3.50
2023-01-30T09:35:38.485Z,-3.43
2023-01-30T09:38:05.322Z,-3.34
2023-01-30T09:40:31.734Z,-3.69
2023-01-30T09:42:58.369Z,-3.33
2023-01-30T09:45:26.399Z,-2.83
2023-01-30T09:47:52.806Z,-2.81
2023-01-30T09:50:20.031Z,-2.50
2023-01-30T09:52:47.096Z,-2.56
2023-01-30T09:55:13.517Z,-2.51
2023-01-30T09:57:40.031Z,-2.69
2023-01-30T10:00:06.519Z,-2.59
2023-01-30T10:02:35.188Z,-2.74
2023-01-30T10:05:03.022Z,-2.47
2023-01-30T10:07:29.738Z,-2.28
2023-01-30T10:09:56.407Z,-1.98
2023-01-30T10:12:23.873Z,-1.88
2023-01-30T10:14:50.852Z,-2.25
2023-01-30T10:17:17.539Z,-2.34
2023-01-30T10:19:43.953Z,-2.49
2023-01-30T10:22:10.484Z,-2.37
2023-01-30T10:24:37.392Z,-2.84
2023-01-30T10:27:04.929Z,-2.56
2023-01-30T10:29:33.897Z,-2.43
2023-01-30T10:32:00.370Z,-2.52
2023-01-30T10:34:26.826Z,-2.62
2023-01-30T10:36:53.364Z,-2.47
2023-01-30T10:39:20.090Z,-2.16
2023-01-30T10:41:46.534Z,-2.22
2023-01-30T10:44:13.204Z,-1.95
2023-01-30T10:46:39.794Z,-1.95
2023-01-30T10:49:06.533Z,-1.93
2023-01-30T10:51:33.830Z,-1.76
2023-01-30T10:54:00.336Z,-1.92
2023-01-30T10:56:26.754Z,-1.61
2023-01-30T10:58:53.283Z,-1.95
2023-01-30T11:01:19.788Z,-1.51
2023-01-30T11:03:47.189Z,-1.43
2023-01-30T11:06:15.323Z,-0.99
2023-01-30T11:08:41.880Z,-1.07
2023-01-30T11:11:08.302Z,-1.13
2023-01-30T11:13:34.788Z,-1.28
2023-01-30T11:16:01.317Z,-0.81
2023-01-30T11:19:17.191Z,-1.36
2023-01-30T11:21:14.899Z,-1.50
2023-01-30T11:23:43.708Z,-1.77
2023-01-30T11:26:11.854Z,-1.40
2023-01-30T11:28:38.572Z,-1.19
2023-01-30T11:31:05.081Z,-0.89
2023-01-30T11:33:31.519Z,-1.04
2023-01-30T11:35:58.116Z,-0.75
2023-01-30T11:38:24.747Z,-0.64
2023-01-30T11:40:51.365Z,-0.71
2023-01-30T11:43:18.812Z,-0.60
2023-01-30T11:45:45.305Z,-0.41
2023-01-30T11:48:23.533Z,-0.93
2023-01-30T11:50:58.136Z,-1.03
2023-01-30T11:53:24.759Z,-0.72
2023-01-30T11:56:03.034Z,-0.76
2023-01-30T11:58:32.496Z,-0.58
2023-01-30T12:00:59.077Z,-0.15
2023-01-30T12:03:25.492Z,-0.49
2023-01-30T12:05:51.955Z,-0.69
2023-01-30T12:08:22.516Z,-0.57
2023-01-30T12:10:54.284Z,-0.52
2023-01-30T12:13:22.298Z,-0.68
2023-01-30T12:15:48.781Z,-0.68
2023-01-30T12:18:15.591Z,-0.59
2023-01-30T12:20:41.973Z,-0.88
2023-01-30T12:23:08.439Z,-1.20
2023-01-30T12:25:34.961Z,-1.06
2023-01-30T12:28:01.648Z,-1.32
2023-01-30T12:30:30.594Z,-1.22
2023-01-30T12:32:57.181Z,-1.06
2023-01-30T12:35:23.775Z,-0.96
2023-01-30T12:37:50.323Z,-0.77
2023-01-30T12:40:16.922Z,-1.25
2023-01-30T12:42:43.588Z,-1.14
2023-01-30T12:45:10.112Z,-1.12
2023-01-30T12:47:36.626Z,-0.83
2023-01-30T12:50:03.085Z,-0.50
2023-01-30T12:52:29.573Z,-1.25
2023-01-30T12:54:56.205Z,-0.63
2023-01-30T12:57:23.271Z,-1.27
2023-01-30T12:59:49.671Z,-0.98
2023-01-30T13:02:16.481Z,-1.01
2023-01-30T13:05:01.744Z,-0.61
2023-01-30T13:07:29.772Z,-1.01
2023-01-30T13:09:56.261Z,-0.68
2023-01-30T13:12:22.743Z,-0.46
2023-01-30T13:14:49.365Z,-0.87
2023-01-30T13:17:16.233Z,-0.82
2023-01-30T13:19:42.631Z,-0.79
2023-01-30T13:22:09.505Z,-1.14
2023-01-30T13:24:36.114Z,-0.96
2023-01-30T13:27:03.336Z,-1.29
2023-01-30T13:29:29.836Z,-0.94
2023-01-30T13:31:56.714Z,-1.04
2023-01-30T13:34:23.281Z,-0.98
2023-01-30T13:36:49.770Z,-1.43
2023-01-30T13:41:42.648Z,-1.20
2023-01-30T13:44:09.128Z,-1.18
2023-01-30T13:46:35.838Z,-1.66
2023-01-30T13:49:04.677Z,-1.68
2023-01-30T13:51:31.152Z,-1.75
2023-01-30T13:53:58.095Z,-1.49
2023-01-30T13:56:40.772Z,-1.52
2023-01-30T13:59:08.853Z,-1.78
2023-01-30T14:01:35.463Z,-2.15
2023-01-30T14:04:01.926Z,-1.52
2023-01-30T14:06:28.610Z,-1.41
2023-01-30T14:08:55.098Z,-1.46
2023-01-30T14:11:21.682Z,-1.94
2023-01-30T14:13:48.561Z,-1.89
2023-01-30T14:16:15.084Z,-1.88
2023-01-30T14:18:41.524Z,-2.09
2023-01-30T14:21:08.176Z,-2.07
2023-01-30T14:23:34.813Z,-1.83
2023-01-30T14:26:01.222Z,-2.13
2023-01-30T14:28:27.671Z,-1.88
2023-01-30T14:30:54.211Z,-1.64
2023-01-30T14:33:20.878Z,-1.56
2023-01-30T14:35:47.451Z,-1.36
2023-01-30T14:38:13.937Z,-1.23
2023-01-30T14:40:40.447Z,-1.61
2023-01-30T14:43:06.952Z,-1.56
2023-01-30T14:45:33.634Z,-1.53
2023-01-30T14:48:01.277Z,-1.13
2023-01-30T14:50:28.029Z,-0.91
2023-01-30T14:52:54.852Z,-1.37
2023-01-30T14:55:21.814Z,-1.12
2023-01-30T14:57:48.470Z,-1.11
2023-01-30T15:00:18.004Z,-1.40
2023-01-30T15:02:46.143Z,-1.16
2023-01-30T15:05:13.128Z,-1.49
2023-01-30T15:07:41.944Z,-1.61
2023-01-30T15:10:08.333Z,-1.41
2023-01-30T15:12:36.340Z,-1.43
2023-01-30T15:15:02.832Z,-1.44
2023-01-30T15:17:29.321Z,-1.64
2023-01-30T15:19:55.924Z,-1.30
2023-01-30T15:22:22.765Z,-1.66
2023-01-30T15:24:49.655Z,-1.66
2023-01-30T15:27:16.106Z,-1.46
2023-01-30T15:29:42.607Z,-1.47
2023-01-30T15:32:11.576Z,-1.76
2023-01-30T15:34:38.704Z,-1.37
2023-01-30T15:37:06.164Z,-1.55
2023-01-30T15:39:32.808Z,-1.54
2023-01-30T15:42:00.174Z,-1.65
2023-01-30T15:44:26.683Z,-1.33
2023-01-30T15:46:53.820Z,-1.47
2023-01-30T15:49:20.395Z,-1.13
2023-01-30T15:51:47.073Z,-1.22
2023-01-30T15:54:13.478Z,-1.30
2023-01-30T15:56:39.980Z,-1.37
2023-01-30T15:59:06.556Z,-1.22
2023-01-30T16:01:33.409Z,-0.88
2023-01-30T16:03:59.995Z,-1.01
2023-01-30T16:06:26.471Z,-1.27
2023-01-30T16:08:52.906Z,-1.15
2023-01-30T16:11:19.383Z,-1.00
2023-01-30T16:13:46.141Z,-1.12
2023-01-30T16:16:12.958Z,-0.58
2023-01-30T16:18:39.957Z,-0.47
2023-01-30T16:21:06.478Z,-0.40
2023-01-30T16:23:34.022Z,-0.84
2023-01-30T16:26:00.828Z,-0.46
2023-01-30T16:28:27.644Z,-0.61
2023-01-30T16:30:54.445Z,-0.49
2023-01-30T16:33:20.973Z,-0.52
2023-01-30T16:35:49.785Z,-0.52
2023-01-30T16:38:17.313Z,-0.14
2023-01-30T16:40:44.603Z,-0.51
2023-01-30T16:43:11.028Z,-0.92
2023-01-30T16:45:37.531Z,-0.92
2023-01-30T16:48:05.795Z,-0.69
2023-01-30T16:50:32.752Z,-0.66
2023-01-30T16:52:59.348Z,-0.74
2023-01-30T16:55:26.213Z,-0.76
2023-01-30T16:57:54.429Z,-0.54
2023-01-30T17:00:21.515Z,-0.58
2023-01-30T17:02:48.854Z,-0.54
2023-01-30T17:05:15.440Z,-0.90
2023-01-30T17:07:42.209Z,-0.64
2023-01-30T17:10:09.101Z,-0.53
2023-01-30T17:12:36.921Z,-1.13
2023-01-30T17:15:03.563Z,-0.67
2023-01-30T17:17:30.404Z,-0.76
2023-01-30T17:19:57.458Z,-1.06
2023-01-30T17:22:23.970Z,-1.03
2023-01-30T17:24:50.834Z,-1.08
2023-01-30T17:27:17.402Z,-1.00
2023-01-30T17:29:44.253Z,-1.07
2023-01-30T17:32:10.853Z,-1.12
2023-01-30T17:34:37.377Z,-0.95
2023-01-30T17:37:04.211Z,-1.01
2023-01-30T17:39:32.468Z,-1.03
2023-01-30T17:41:59.606Z,-0.97
2023-01-30T17:44:26.164Z,-0.69
2023-01-30T17:46:52.995Z,-0.64
2023-01-30T17:49:20.851Z,-0.62
2023-01-30T17:51:49.953Z,-0.51
2023-01-30T17:54:16.568Z,-1.26
2023-01-30T17:56:43.848Z,-1.10
2023-01-30T17:59:11.613Z,-0.94
2023-01-30T18:01:38.781Z,-0.51
2023-01-30T18:04:07.127Z,-0.82
2023-01-30T18:06:34.010Z,-0.72
2023-01-30T18:09:01.020Z,-0.90
2023-01-30T18:11:28.903Z,-1.02
2023-01-30T18:13:55.678Z,-0.69
2023-01-30T18:16:22.628Z,-0.90
2023-01-30T18:18:49.804Z,-0.72
2023-01-30T18:21:16.682Z,-1.08
2023-01-30T18:23:43.611Z,-0.58
2023-01-30T18:26:11.762Z,-0.63
2023-01-30T18:28:39.468Z,-0.89
2023-01-30T18:31:07.467Z,-0.81
2023-01-30T18:33:34.425Z,-0.58
2023-01-30T18:36:06.303Z,-0.86
2023-01-30T18:38:37.174Z,-0.87
2023-01-30T18:41:04.164Z,-0.63
2023-01-30T18:43:31.096Z,-0.70
2023-01-30T18:45:58.009Z,-0.63
2023-01-30T18:48:25.030Z,-0.73
2023-01-30T18:50:52.213Z,-0.72
2023-01-30T18:53:21.535Z,-0.44
2023-01-30T18:55:49.258Z,-0.82
2023-01-30T18:58:16.623Z,-1.03
2023-01-30T19:00:43.438Z,-1.19
2023-01-30T19:03:10.009Z,-0.69
2023-01-30T19:05:36.836Z,-0.67
2023-01-30T19:08:04.610Z,-0.83
2023-01-30T19:10:31.656Z,-0.70
2023-01-30T19:12:58.954Z,-0.64
2023-01-30T19:15:26.059Z,-0.67
2023-01-30T19:17:53.048Z,-0.36
2023-01-30T19:20:23.493Z,-0.87
2023-01-30T19:22:51.118Z,-1.05
2023-01-30T19:25:19.378Z,-1.04
2023-01-30T19:27:46.484Z,-0.91
2023-01-30T19:30:13.805Z,-0.72
2023-01-30T19:32:41.270Z,-0.76
2023-01-30T19:35:10.778Z,-0.74
2023-01-30T19:37:38.614Z,-0.74
2023-01-30T19:40:05.854Z,-0.39
2023-01-30T19:42:32.867Z,-0.51
2023-01-30T19:45:00.408Z,-0.47
2023-01-30T19:47:28.455Z,-0.81
2023-01-30T19:49:56.386Z,-0.43
2023-01-30T19:52:23.538Z,-0.69
2023-01-30T19:54:50.891Z,-0.53
2023-01-30T19:57:18.056Z,-0.52
2023-01-30T19:59:45.801Z,-0.48
2023-01-30T20:02:13.842Z,-0.53
2023-01-30T20:04:42.678Z,-0.53
2023-01-30T20:07:10.179Z,-0.60
2023-01-30T20:09:37.391Z,-0.25
2023-01-30T20:12:04.455Z,-0.26
2023-01-30T20:14:33.981Z,-0.21
2023-01-30T20:17:01.921Z,-0.06
2023-01-30T20:19:30.809Z,0.05
2023-01-30T20:21:58.401Z,-0.32
2023-01-30T20:24:25.330Z,0.08
2023-01-30T20:26:52.342Z,-0.10
2023-01-30T20:29:19.406Z,-0.49
2023-01-30T20:31:46.481Z,-0.45
2023-01-30T20:34:13.467Z,-0.01
2023-01-30T20:36:40.046Z,-0.03
2023-01-30T20:39:07.741Z,-0.39
2023-01-30T20:41:34.802Z,-0.34
2023-01-30T20:44:01.743Z,-0.68
2023-01-30T20:46:28.786Z,-0.93
2023-01-30T20:48:55.722Z,-0.72
2023-01-30T20:51:22.558Z,-0.59
2023-01-30T20:53:50.768Z,-0.87
2023-01-30T20:56:17.485Z,-1.16
2023-01-30T20:58:46.213Z,-1.17
2023-01-30T21:01:13.450Z,-0.96
2023-01-30T21:03:40.814Z,-0.89
2023-01-30T21:06:07.890Z,-0.95
2023-01-30T21:08:35.141Z,-1.18
2023-01-30T21:11:02.421Z,-0.97
2023-01-30T21:13:29.648Z,-1.15
2023-01-30T21:15:56.214Z,-1.14
2023-01-30T21:18:22.668Z,-1.41
2023-01-30T21:20:49.298Z,-0.96
2023-01-30T21:23:17.175Z,-1.06
2023-01-30T21:25:43.855Z,-1.00
2023-01-30T21:28:10.406Z,-1.20
2023-01-30T21:30:38.241Z,-0.80
2023-01-30T21:33:05.685Z,-0.61
2023-01-30T21:35:32.810Z,-0.63
2023-01-30T21:37:59.648Z,-0.68
2023-01-30T21:40:26.396Z,-0.65
2023-01-30T21:42:53.320Z,-1.13
2023-01-30T21:45:20.206Z,-1.04
2023-01-30T21:47:47.617Z,-1.34
2023-01-30T21:50:14.504Z,-0.79
2023-01-30T21:52:41.272Z,-1.07
2023-01-30T21:55:07.743Z,-0.96
2023-01-30T21:57:34.439Z,-0.74
2023-01-30T22:00:02.051Z,-0.88
2023-01-30T22:02:28.744Z,-0.66
2023-01-30T22:04:55.854Z,-0.69
2023-01-30T22:07:22.954Z,-0.52
2023-01-30T22:09:49.515Z,-0.91
2023-01-30T22:12:16.617Z,-0.49
2023-01-30T22:14:43.306Z,-0.54
2023-01-30T22:17:09.768Z,-0.34
2023-01-30T22:19:36.746Z,-0.57
2023-01-30T22:22:03.192Z,-0.41
2023-01-30T22:24:29.765Z,-0.64
2023-01-30T22:26:56.237Z,-0.77
2023-01-30T22:29:22.793Z,-0.57
2023-01-30T22:31:49.251Z,-1.08
2023-01-30T22:34:15.722Z,-0.62
2023-01-30T22:36:42.661Z,-0.50
2023-01-30T22:39:09.133Z,-0.61
2023-01-30T22:41:38.599Z,-0.65
2023-01-30T22:44:05.490Z,-0.63
2023-01-30T22:46:34.119Z,-0.31
2023-01-30T22:49:01.044Z,-0.62
2023-01-30T22:51:28.159Z,-0.53
2023-01-30T22:53:54.574Z,-0.61
2023-01-30T22:56:21.021Z,-0.45
2023-01-30T22:58:48.372Z,-0.38
2023-01-30T23:01:14.957Z,-0.73
2023-01-30T23:03:43.372Z,-0.20
2023-01-30T23:06:10.040Z,-0.26
2023-01-30T23:08:36.867Z,-0.17
2023-01-30T23:11:03.291Z,-0.06
2023-01-30T23:13:29.729Z,0.01
2023-01-30T23:15:56.345Z,0.06
2023-01-30T23:18:23.066Z,-0.45
2023-01-30T23:20:49.560Z,-0.03
2023-01-30T23:23:16.068Z,0.12
2023-01-30T23:25:42.515Z,0.11
2023-01-30T23:28:08.995Z,0.03
2023-01-30T23:30:35.507Z,0.35
2023-01-30T23:33:01.983Z,0.15
2023-01-30T23:35:28.537Z,0.24
2023-01-30T23:37:55.714Z,0.17
2023-01-30T23:40:24.927Z,0.18
2023-01-30T23:42:51.336Z,0.28
2023-01-30T23:45:18.177Z,0.26
2023-01-30T23:47:44.934Z,0.07
2023-01-30T23:50:11.594Z,-0.00
2023-01-30T23:52:38.111Z,0.33
2023-01-30T23:55:05.345Z,-0.04
2023-01-30T23:57:31.792Z,-0.49
2023-01-30T23:59:58.420Z,-0.42
